sensor_id;sensor_type;location;lat;lon;timestamp;temperature;humidity
42147;DHT22;27815;43.410;11.852;2023-12-14T00:03:23;12.00;69.60
42147;DHT22;27815;43.410;11.852;2023-12-14T00:07:26;12.00;69.60
42147;DHT22;27815;43.410;11.852;2023-12-14T00:11:29;12.00;69.60
42147;DHT22;27815;43.410;11.852;2023-12-14T00:15:32;12.00;69.70
42147;DHT22;27815;43.410;11.852;2023-12-14T00:19:35;12.00;69.80
42147;DHT22;27815;43.410;11.852;2023-12-14T00:23:38;12.10;69.80
42147;DHT22;27815;43.410;11.852;2023-12-14T00:27:41;12.10;69.90
42147;DHT22;27815;43.410;11.852;2023-12-14T00:31:44;12.10;69.90
42147;DHT22;27815;43.410;11.852;2023-12-14T00:35:47;12.10;70.00
42147;DHT22;27815;43.410;11.852;2023-12-14T00:39:50;12.10;70.00
42147;DHT22;27815;43.410;11.852;2023-12-14T00:43:53;12.10;70.10
42147;DHT22;27815;43.410;11.852;2023-12-14T00:47:56;12.00;70.30
42147;DHT22;27815;43.410;11.852;2023-12-14T00:51:58;12.00;70.30
42147;DHT22;27815;43.410;11.852;2023-12-14T00:56:02;12.00;70.30
42147;DHT22;27815;43.410;11.852;2023-12-14T01:00:05;11.90;70.50
42147;DHT22;27815;43.410;11.852;2023-12-14T01:04:08;11.90;70.60
42147;DHT22;27815;43.410;11.852;2023-12-14T01:08:11;11.90;70.70
42147;DHT22;27815;43.410;11.852;2023-12-14T01:12:14;11.80;70.80
42147;DHT22;27815;43.410;11.852;2023-12-14T01:16:17;11.70;70.90
42147;DHT22;27815;43.410;11.852;2023-12-14T01:20:21;11.60;71.10
42147;DHT22;27815;43.410;11.852;2023-12-14T01:24:23;11.60;71.20
42147;DHT22;27815;43.410;11.852;2023-12-14T01:28:26;11.50;71.40
42147;DHT22;27815;43.410;11.852;2023-12-14T01:32:29;11.50;71.50
42147;DHT22;27815;43.410;11.852;2023-12-14T01:36:33;11.50;71.60
42147;DHT22;27815;43.410;11.852;2023-12-14T01:40:36;11.60;71.70
42147;DHT22;27815;43.410;11.852;2023-12-14T01:44:38;11.70;71.70
42147;DHT22;27815;43.410;11.852;2023-12-14T01:48:41;11.70;71.60
42147;DHT22;27815;43.410;11.852;2023-12-14T01:52:45;11.80;71.50
42147;DHT22;27815;43.410;11.852;2023-12-14T01:56:48;11.80;71.50
42147;DHT22;27815;43.410;11.852;2023-12-14T02:05:22;11.80;71.50
42147;DHT22;27815;43.410;11.852;2023-12-14T02:09:25;11.70;71.60
42147;DHT22;27815;43.410;11.852;2023-12-14T02:13:28;11.70;71.60
42147;DHT22;27815;43.410;11.852;2023-12-14T02:17:31;11.70;71.70
42147;DHT22;27815;43.410;11.852;2023-12-14T02:21:34;11.70;71.60
42147;DHT22;27815;43.410;11.852;2023-12-14T02:25:37;11.60;71.60
42147;DHT22;27815;43.410;11.852;2023-12-14T02:29:40;11.60;71.60
42147;DHT22;27815;43.410;11.852;2023-12-14T02:33:43;11.60;71.70
42147;DHT22;27815;43.410;11.852;2023-12-14T02:37:46;11.60;71.70
42147;DHT22;27815;43.410;11.852;2023-12-14T02:41:49;11.50;71.70
42147;DHT22;27815;43.410;11.852;2023-12-14T02:45:52;11.40;71.80
42147;DHT22;27815;43.410;11.852;2023-12-14T02:49:55;11.30;72.00
42147;DHT22;27815;43.410;11.852;2023-12-14T02:53:58;11.30;72.30
42147;DHT22;27815;43.410;11.852;2023-12-14T02:58:01;11.30;72.30
42147;DHT22;27815;43.410;11.852;2023-12-14T03:02:04;11.30;72.20
42147;DHT22;27815;43.410;11.852;2023-12-14T03:06:07;11.20;72.20
42147;DHT22;27815;43.410;11.852;2023-12-14T03:10:10;11.00;72.20
42147;DHT22;27815;43.410;11.852;2023-12-14T03:14:13;10.90;72.40
42147;DHT22;27815;43.410;11.852;2023-12-14T03:18:16;10.70;72.70
42147;DHT22;27815;43.410;11.852;2023-12-14T03:22:19;10.70;73.00
42147;DHT22;27815;43.410;11.852;2023-12-14T03:26:22;10.70;73.10
42147;DHT22;27815;43.410;11.852;2023-12-14T03:30:25;10.70;73.00
42147;DHT22;27815;43.410;11.852;2023-12-14T03:34:29;10.70;73.10
42147;DHT22;27815;43.410;11.852;2023-12-14T03:38:33;10.70;73.00
42147;DHT22;27815;43.410;11.852;2023-12-14T03:42:36;10.60;73.10
42147;DHT22;27815;43.410;11.852;2023-12-14T03:46:39;10.60;73.30
42147;DHT22;27815;43.410;11.852;2023-12-14T03:50:42;10.60;73.20
42147;DHT22;27815;43.410;11.852;2023-12-14T03:54:45;10.50;73.30
42147;DHT22;27815;43.410;11.852;2023-12-14T03:58:48;10.50;73.30
42147;DHT22;27815;43.410;11.852;2023-12-14T04:02:51;10.40;73.30
42147;DHT22;27815;43.410;11.852;2023-12-14T04:06:54;10.30;73.40
42147;DHT22;27815;43.410;11.852;2023-12-14T04:10:57;10.20;73.60
42147;DHT22;27815;43.410;11.852;2023-12-14T04:15:00;10.20;73.70
42147;DHT22;27815;43.410;11.852;2023-12-14T04:19:03;10.20;73.80
42147;DHT22;27815;43.410;11.852;2023-12-14T04:23:12;10.20;73.90
42147;DHT22;27815;43.410;11.852;2023-12-14T04:27:15;10.10;73.90
42147;DHT22;27815;43.410;11.852;2023-12-14T04:31:18;10.00;74.10
42147;DHT22;27815;43.410;11.852;2023-12-14T04:35:21;10.00;74.40
42147;DHT22;27815;43.410;11.852;2023-12-14T04:39:27;10.10;74.20
42147;DHT22;27815;43.410;11.852;2023-12-14T04:43:30;10.20;74.10
42147;DHT22;27815;43.410;11.852;2023-12-14T04:47:35;10.30;74.20
42147;DHT22;27815;43.410;11.852;2023-12-14T04:51:38;10.40;74.00
42147;DHT22;27815;43.410;11.852;2023-12-14T04:55:41;10.30;73.80
42147;DHT22;27815;43.410;11.852;2023-12-14T04:59:46;10.20;73.70
42147;DHT22;27815;43.410;11.852;2023-12-14T05:03:49;10.10;73.80
42147;DHT22;27815;43.410;11.852;2023-12-14T05:07:52;10.00;73.80
42147;DHT22;27815;43.410;11.852;2023-12-14T05:11:55;10.00;73.80
42147;DHT22;27815;43.410;11.852;2023-12-14T05:15:58;10.00;73.80
42147;DHT22;27815;43.410;11.852;2023-12-14T05:20:01;9.90;73.90
42147;DHT22;27815;43.410;11.852;2023-12-14T05:24:05;9.70;74.10
42147;DHT22;27815;43.410;11.852;2023-12-14T05:28:08;9.70;74.20
42147;DHT22;27815;43.410;11.852;2023-12-14T05:32:11;9.50;74.30
42147;DHT22;27815;43.410;11.852;2023-12-14T05:36:14;9.40;74.50
42147;DHT22;27815;43.410;11.852;2023-12-14T05:40:17;9.40;74.60
42147;DHT22;27815;43.410;11.852;2023-12-14T05:44:20;9.30;74.70
42147;DHT22;27815;43.410;11.852;2023-12-14T05:48:23;9.30;74.70
42147;DHT22;27815;43.410;11.852;2023-12-14T05:52:26;9.20;74.80
42147;DHT22;27815;43.410;11.852;2023-12-14T05:56:31;9.10;74.90
42147;DHT22;27815;43.410;11.852;2023-12-14T06:00:41;9.20;75.00
42147;DHT22;27815;43.410;11.852;2023-12-14T06:04:44;9.10;74.90
42147;DHT22;27815;43.410;11.852;2023-12-14T06:08:47;9.10;75.00
42147;DHT22;27815;43.410;11.852;2023-12-14T06:12:51;9.10;75.00
42147;DHT22;27815;43.410;11.852;2023-12-14T06:16:54;9.10;75.10
42147;DHT22;27815;43.410;11.852;2023-12-14T06:20:57;9.10;75.20
42147;DHT22;27815;43.410;11.852;2023-12-14T06:25:00;9.00;75.40
42147;DHT22;27815;43.410;11.852;2023-12-14T06:29:03;9.00;75.40
42147;DHT22;27815;43.410;11.852;2023-12-14T06:33:06;8.90;75.40
42147;DHT22;27815;43.410;11.852;2023-12-14T06:37:09;8.90;75.70
42147;DHT22;27815;43.410;11.852;2023-12-14T06:41:24;9.00;75.80
42147;DHT22;27815;43.410;11.852;2023-12-14T06:45:27;9.10;75.90
42147;DHT22;27815;43.410;11.852;2023-12-14T06:49:29;9.00;75.80
42147;DHT22;27815;43.410;11.852;2023-12-14T06:53:33;9.00;76.00
42147;DHT22;27815;43.410;11.852;2023-12-14T06:57:36;8.90;76.00
42147;DHT22;27815;43.410;11.852;2023-12-14T07:01:39;9.00;76.20
42147;DHT22;27815;43.410;11.852;2023-12-14T07:05:42;9.00;76.10
42147;DHT22;27815;43.410;11.852;2023-12-14T07:09:45;9.00;76.20
42147;DHT22;27815;43.410;11.852;2023-12-14T07:13:48;9.00;76.20
42147;DHT22;27815;43.410;11.852;2023-12-14T07:17:51;9.00;76.00
42147;DHT22;27815;43.410;11.852;2023-12-14T07:21:55;8.90;76.30
42147;DHT22;27815;43.410;11.852;2023-12-14T07:25:58;9.00;76.20
42147;DHT22;27815;43.410;11.852;2023-12-14T07:30:05;9.10;76.00
42147;DHT22;27815;43.410;11.852;2023-12-14T07:34:08;9.10;75.90
42147;DHT22;27815;43.410;11.852;2023-12-14T07:38:15;9.00;76.10
42147;DHT22;27815;43.410;11.852;2023-12-14T07:42:18;9.00;76.30
42147;DHT22;27815;43.410;11.852;2023-12-14T07:46:24;9.10;76.40
42147;DHT22;27815;43.410;11.852;2023-12-14T07:50:29;9.30;76.40
42147;DHT22;27815;43.410;11.852;2023-12-14T07:54:32;9.40;76.40
42147;DHT22;27815;43.410;11.852;2023-12-14T07:58:35;9.50;76.50
42147;DHT22;27815;43.410;11.852;2023-12-14T08:02:38;9.60;76.60
42147;DHT22;27815;43.410;11.852;2023-12-14T08:06:41;9.80;76.50
42147;DHT22;27815;43.410;11.852;2023-12-14T08:10:46;9.90;76.40
42147;DHT22;27815;43.410;11.852;2023-12-14T08:14:51;9.90;76.40
42147;DHT22;27815;43.410;11.852;2023-12-14T08:18:54;9.90;76.50
42147;DHT22;27815;43.410;11.852;2023-12-14T08:22:57;10.00;76.40
42147;DHT22;27815;43.410;11.852;2023-12-14T08:27:00;10.00;76.40
42147;DHT22;27815;43.410;11.852;2023-12-14T08:31:03;10.00;76.50
42147;DHT22;27815;43.410;11.852;2023-12-14T08:35:07;10.10;76.40
42147;DHT22;27815;43.410;11.852;2023-12-14T08:39:10;10.20;76.30
42147;DHT22;27815;43.410;11.852;2023-12-14T08:43:13;10.20;76.30
42147;DHT22;27815;43.410;11.852;2023-12-14T08:47:16;10.30;76.50
42147;DHT22;27815;43.410;11.852;2023-12-14T08:51:19;10.50;76.50
42147;DHT22;27815;43.410;11.852;2023-12-14T08:55:23;10.50;76.60
42147;DHT22;27815;43.410;11.852;2023-12-14T08:59:26;10.80;76.50
42147;DHT22;27815;43.410;11.852;2023-12-14T09:03:29;11.00;76.40
42147;DHT22;27815;43.410;11.852;2023-12-14T09:07:32;11.10;76.30
42147;DHT22;27815;43.410;11.852;2023-12-14T09:11:34;11.20;76.20
42147;DHT22;27815;43.410;11.852;2023-12-14T09:15:38;11.30;76.20
42147;DHT22;27815;43.410;11.852;2023-12-14T16:43:56;9.50;71.80
42147;DHT22;27815;43.410;11.852;2023-12-14T16:47:59;9.50;72.60
42147;DHT22;27815;43.410;11.852;2023-12-14T16:52:04;9.70;72.70
42147;DHT22;27815;43.410;11.852;2023-12-14T16:56:08;9.90;72.40
42147;DHT22;27815;43.410;11.852;2023-12-14T17:00:12;10.10;72.00
42147;DHT22;27815;43.410;11.852;2023-12-14T17:04:16;10.30;71.60
42147;DHT22;27815;43.410;11.852;2023-12-14T17:08:18;10.40;71.30
42147;DHT22;27815;43.410;11.852;2023-12-14T17:12:22;10.50;71.10
42147;DHT22;27815;43.410;11.852;2023-12-14T17:16:25;10.60;70.80
42147;DHT22;27815;43.410;11.852;2023-12-14T17:20:28;10.60;70.50
42147;DHT22;27815;43.410;11.852;2023-12-14T17:24:31;10.60;70.40
42147;DHT22;27815;43.410;11.852;2023-12-14T17:28:33;10.70;70.30
42147;DHT22;27815;43.410;11.852;2023-12-14T17:32:36;10.70;70.10
42147;DHT22;27815;43.410;11.852;2023-12-14T17:36:40;10.70;70.10
42147;DHT22;27815;43.410;11.852;2023-12-14T17:40:43;10.70;70.00
42147;DHT22;27815;43.410;11.852;2023-12-14T17:44:46;10.70;69.90
42147;DHT22;27815;43.410;11.852;2023-12-14T17:48:49;10.70;69.80
42147;DHT22;27815;43.410;11.852;2023-12-14T17:52:52;10.70;69.80
42147;DHT22;27815;43.410;11.852;2023-12-14T17:56:56;10.60;69.60
42147;DHT22;27815;43.410;11.852;2023-12-14T18:01:00;10.60;69.60
42147;DHT22;27815;43.410;11.852;2023-12-14T18:05:07;10.60;69.50
42147;DHT22;27815;43.410;11.852;2023-12-14T18:09:11;10.60;69.40
42147;DHT22;27815;43.410;11.852;2023-12-14T18:13:14;10.60;69.50
42147;DHT22;27815;43.410;11.852;2023-12-14T18:17:19;10.50;69.40
42147;DHT22;27815;43.410;11.852;2023-12-14T18:21:24;10.50;69.30
42147;DHT22;27815;43.410;11.852;2023-12-14T18:25:28;10.50;69.20
42147;DHT22;27815;43.410;11.852;2023-12-14T18:29:32;10.50;69.10
42147;DHT22;27815;43.410;11.852;2023-12-14T18:33:36;10.50;69.10
42147;DHT22;27815;43.410;11.852;2023-12-14T18:37:41;10.50;69.00
42147;DHT22;27815;43.410;11.852;2023-12-14T18:41:44;10.50;69.00
42147;DHT22;27815;43.410;11.852;2023-12-14T18:45:47;10.50;69.00
42147;DHT22;27815;43.410;11.852;2023-12-14T18:49:50;10.40;69.00
42147;DHT22;27815;43.410;11.852;2023-12-14T18:53:53;10.40;69.00
42147;DHT22;27815;43.410;11.852;2023-12-14T18:57:56;10.40;68.80
42147;DHT22;27815;43.410;11.852;2023-12-14T19:01:59;10.30;68.90
42147;DHT22;27815;43.410;11.852;2023-12-14T19:06:08;10.30;68.90
42147;DHT22;27815;43.410;11.852;2023-12-14T19:10:12;10.30;68.80
42147;DHT22;27815;43.410;11.852;2023-12-14T19:14:16;10.20;68.80
42147;DHT22;27815;43.410;11.852;2023-12-14T19:18:19;10.20;68.90
42147;DHT22;27815;43.410;11.852;2023-12-14T19:22:23;10.20;68.90
42147;DHT22;27815;43.410;11.852;2023-12-14T19:26:27;10.10;68.90
42147;DHT22;27815;43.410;11.852;2023-12-14T19:30:31;10.00;68.90
42147;DHT22;27815;43.410;11.852;2023-12-14T19:34:34;10.00;68.90
42147;DHT22;27815;43.410;11.852;2023-12-14T19:38:45;10.00;68.90
42147;DHT22;27815;43.410;11.852;2023-12-14T19:42:48;10.00;68.80
42147;DHT22;27815;43.410;11.852;2023-12-14T19:46:53;10.00;68.90
42147;DHT22;27815;43.410;11.852;2023-12-14T19:51:02;10.00;68.90
42147;DHT22;27815;43.410;11.852;2023-12-14T19:55:06;10.00;68.70
42147;DHT22;27815;43.410;11.852;2023-12-14T19:59:13;9.90;68.90
42147;DHT22;27815;43.410;11.852;2023-12-14T20:03:17;9.90;68.90
42147;DHT22;27815;43.410;11.852;2023-12-14T20:07:23;9.90;68.90
42147;DHT22;27815;43.410;11.852;2023-12-14T20:11:30;10.00;68.80
42147;DHT22;27815;43.410;11.852;2023-12-14T20:15:38;10.00;68.90
42147;DHT22;27815;43.410;11.852;2023-12-14T20:19:50;9.90;68.90
42147;DHT22;27815;43.410;11.852;2023-12-14T20:23:54;10.00;68.80
42147;DHT22;27815;43.410;11.852;2023-12-14T20:28:00;10.00;68.80
42147;DHT22;27815;43.410;11.852;2023-12-14T20:32:04;10.00;68.80
42147;DHT22;27815;43.410;11.852;2023-12-14T20:36:08;10.00;68.70
42147;DHT22;27815;43.410;11.852;2023-12-14T20:40:17;10.00;68.80
42147;DHT22;27815;43.410;11.852;2023-12-14T20:44:22;10.00;68.70
42147;DHT22;27815;43.410;11.852;2023-12-14T20:48:29;10.10;68.60
42147;DHT22;27815;43.410;11.852;2023-12-14T20:52:32;10.10;68.50
42147;DHT22;27815;43.410;11.852;2023-12-14T20:56:38;10.10;68.40
42147;DHT22;27815;43.410;11.852;2023-12-14T21:00:41;10.10;68.40
42147;DHT22;27815;43.410;11.852;2023-12-14T21:04:45;10.00;68.40
42147;DHT22;27815;43.410;11.852;2023-12-14T21:08:48;10.10;68.40
42147;DHT22;27815;43.410;11.852;2023-12-14T21:12:55;10.00;68.40
42147;DHT22;27815;43.410;11.852;2023-12-14T21:17:03;10.00;68.50
42147;DHT22;27815;43.410;11.852;2023-12-14T21:21:06;9.90;68.50
42147;DHT22;27815;43.410;11.852;2023-12-14T21:25:18;9.80;68.60
42147;DHT22;27815;43.410;11.852;2023-12-14T21:30:00;9.80;68.60
42147;DHT22;27815;43.410;11.852;2023-12-14T21:34:04;9.70;68.80
42147;DHT22;27815;43.410;11.852;2023-12-14T21:38:10;9.70;68.90
42147;DHT22;27815;43.410;11.852;2023-12-14T21:42:14;9.60;68.90
42147;DHT22;27815;43.410;11.852;2023-12-14T21:46:17;9.60;69.00
42147;DHT22;27815;43.410;11.852;2023-12-14T21:50:20;9.60;69.00
42147;DHT22;27815;43.410;11.852;2023-12-14T21:54:23;9.50;69.10
42147;DHT22;27815;43.410;11.852;2023-12-14T21:58:25;9.50;69.10
42147;DHT22;27815;43.410;11.852;2023-12-14T22:02:28;9.50;69.10
42147;DHT22;27815;43.410;11.852;2023-12-14T22:06:31;9.50;69.10
42147;DHT22;27815;43.410;11.852;2023-12-14T22:10:35;9.50;69.10
42147;DHT22;27815;43.410;11.852;2023-12-14T22:14:38;9.50;69.10
42147;DHT22;27815;43.410;11.852;2023-12-14T22:18:41;9.60;69.00
42147;DHT22;27815;43.410;11.852;2023-12-14T22:22:44;9.60;69.00
42147;DHT22;27815;43.410;11.852;2023-12-14T22:26:47;9.60;69.00
42147;DHT22;27815;43.410;11.852;2023-12-14T22:30:50;9.60;69.00
42147;DHT22;27815;43.410;11.852;2023-12-14T22:34:53;9.60;69.00
42147;DHT22;27815;43.410;11.852;2023-12-14T22:38:57;9.60;69.00
42147;DHT22;27815;43.410;11.852;2023-12-14T22:43:00;9.60;68.90
42147;DHT22;27815;43.410;11.852;2023-12-14T22:47:03;9.60;69.00
42147;DHT22;27815;43.410;11.852;2023-12-14T22:51:06;9.60;68.90
42147;DHT22;27815;43.410;11.852;2023-12-14T22:55:09;9.60;68.90
42147;DHT22;27815;43.410;11.852;2023-12-14T22:59:17;9.50;68.90
42147;DHT22;27815;43.410;11.852;2023-12-14T23:03:20;9.60;68.90
42147;DHT22;27815;43.410;11.852;2023-12-14T23:07:23;9.70;68.80
42147;DHT22;27815;43.410;11.852;2023-12-14T23:11:26;9.70;68.70
42147;DHT22;27815;43.410;11.852;2023-12-14T23:15:29;9.80;68.60
42147;DHT22;27815;43.410;11.852;2023-12-14T23:19:32;9.80;68.50
42147;DHT22;27815;43.410;11.852;2023-12-14T23:23:35;9.80;68.30
42147;DHT22;27815;43.410;11.852;2023-12-14T23:27:38;9.90;68.10
42147;DHT22;27815;43.410;11.852;2023-12-14T23:31:41;9.90;67.90
42147;DHT22;27815;43.410;11.852;2023-12-14T23:35:45;10.00;67.80
42147;DHT22;27815;43.410;11.852;2023-12-14T23:39:52;10.00;67.80
42147;DHT22;27815;43.410;11.852;2023-12-14T23:43:55;10.00;67.60
42147;DHT22;27815;43.410;11.852;2023-12-14T23:47:58;10.00;67.50
42147;DHT22;27815;43.410;11.852;2023-12-14T23:52:02;10.00;67.50
42147;DHT22;27815;43.410;11.852;2023-12-14T23:56:06;10.00;67.20
